createdAt,value
2018-07-04T00:04:50.119Z,270
2018-07-04T00:09:49.989Z,270
2018-07-04T00:14:49.692Z,270
2018-07-04T00:19:49.391Z,270
2018-07-04T00:24:50.040Z,270
2018-07-04T00:29:49.660Z,270
2018-07-04T00:34:49.332Z,270
2018-07-04T00:39:49.928Z,270
2018-07-04T00:44:49.570Z,270
2018-07-04T00:49:50.207Z,270
2018-07-04T00:54:49.852Z,270
2018-07-04T00:59:49.470Z,270
2018-07-04T01:04:50.198Z,270
2018-07-04T01:09:49.720Z,270
2018-07-04T01:14:49.501Z,270
2018-07-04T01:19:50.236Z,270
2018-07-04T01:24:49.875Z,270
2018-07-04T01:29:49.451Z,270
2018-07-04T01:34:50.168Z,270
2018-07-04T01:39:49.780Z,270
2018-07-04T01:44:49.313Z,270
2018-07-04T01:49:49.945Z,270
2018-07-04T01:54:49.967Z,270
2018-07-04T01:59:49.747Z,270
2018-07-04T02:04:50.175Z,270
2018-07-04T02:09:50.204Z,270
2018-07-04T02:14:50.032Z,270
2018-07-04T02:19:49.742Z,270
2018-07-04T02:24:49.330Z,270
2018-07-04T02:29:50.061Z,270
2018-07-04T02:34:49.862Z,270
2018-07-04T02:39:49.552Z,270
2018-07-04T02:44:50.267Z,270
2018-07-04T02:49:50.000Z,270
2018-07-04T02:54:49.478Z,270
2018-07-04T02:59:50.219Z,270
2018-07-04T03:04:50.331Z,270
2018-07-04T03:09:49.499Z,270
2018-07-04T03:14:50.123Z,270
2018-07-04T03:19:49.866Z,270
2018-07-04T03:24:49.484Z,270
2018-07-04T03:29:50.096Z,270
2018-07-04T03:34:49.847Z,270
2018-07-04T03:39:49.507Z,270
2018-07-04T03:44:50.130Z,270
2018-07-04T03:49:50.023Z,270
2018-07-04T03:54:49.853Z,270
2018-07-04T03:59:49.545Z,270
2018-07-04T04:04:50.450Z,270
2018-07-04T04:09:50.120Z,270
2018-07-04T04:14:50.000Z,270
2018-07-04T04:19:49.961Z,270
2018-07-04T04:24:49.692Z,270
2018-07-04T04:29:49.935Z,270
2018-07-04T04:34:50.027Z,270
2018-07-04T04:39:49.990Z,270
2018-07-04T04:44:49.827Z,270
2018-07-04T04:49:49.633Z,270
2018-07-04T04:54:50.538Z,270
2018-07-04T04:59:50.283Z,270
2018-07-04T05:04:49.830Z,270
2018-07-04T05:09:49.910Z,270
2018-07-04T05:14:49.942Z,315
2018-07-04T05:19:49.645Z,315
2018-07-04T05:24:50.352Z,315
2018-07-04T05:29:50.069Z,315
2018-07-04T05:34:50.073Z,315
2018-07-04T05:39:49.845Z,315
2018-07-04T05:44:50.495Z,45
2018-07-04T05:49:50.168Z,45
2018-07-04T05:54:50.321Z,45
2018-07-04T05:59:50.039Z,45
2018-07-04T06:04:49.830Z,315
2018-07-04T06:09:50.399Z,315
2018-07-04T06:14:50.389Z,315
2018-07-04T06:19:49.811Z,315
2018-07-04T06:24:49.887Z,315
2018-07-04T06:29:49.644Z,315
2018-07-04T06:34:50.350Z,45
2018-07-04T06:39:49.971Z,45
2018-07-04T06:44:49.675Z,270
2018-07-04T06:49:50.429Z,270
2018-07-04T06:54:50.586Z,158
2018-07-04T06:59:50.397Z,158
2018-07-04T07:04:50.183Z,0
2018-07-04T07:09:49.655Z,0
2018-07-04T07:14:50.307Z,292
2018-07-04T07:19:50.257Z,292
2018-07-04T07:24:49.843Z,270
2018-07-04T07:29:49.888Z,270
2018-07-04T07:34:49.901Z,292
2018-07-04T07:39:50.618Z,292
2018-07-04T07:44:49.964Z,225
2018-07-04T07:49:50.612Z,225
2018-07-04T07:54:50.446Z,315
2018-07-04T07:59:49.971Z,315
2018-07-04T08:04:49.688Z,68
2018-07-04T08:09:50.497Z,68
2018-07-04T08:14:50.121Z,270
2018-07-04T08:19:49.847Z,270
2018-07-04T08:24:50.588Z,90
2018-07-04T08:29:49.745Z,90
2018-07-04T08:34:50.756Z,225
2018-07-04T08:39:50.456Z,225
2018-07-04T08:44:50.080Z,0
2018-07-04T08:49:49.769Z,0
2018-07-04T08:54:49.816Z,248
2018-07-04T08:59:50.583Z,248
2018-07-04T09:04:50.395Z,0
2018-07-04T09:09:50.128Z,0
2018-07-04T09:14:49.789Z,270
2018-07-04T09:19:50.524Z,270
2018-07-04T09:24:49.946Z,202
2018-07-04T09:29:50.643Z,202
2018-07-04T09:34:50.498Z,68
2018-07-04T09:39:50.237Z,68
2018-07-04T09:44:50.080Z,112
2018-07-04T09:49:50.726Z,112
2018-07-04T09:54:50.372Z,45
2018-07-04T09:59:49.990Z,45
2018-07-04T10:04:50.746Z,292
2018-07-04T10:09:50.071Z,292
2018-07-04T10:14:50.905Z,248
2018-07-04T10:19:50.681Z,248
2018-07-04T10:24:50.286Z,225
2018-07-04T10:29:49.959Z,225
2018-07-04T10:34:50.004Z,202
2018-07-04T10:39:50.745Z,202
2018-07-04T10:44:50.377Z,180
2018-07-04T10:49:50.084Z,180
2018-07-04T10:54:49.886Z,225
2018-07-04T10:59:50.496Z,225
2018-07-04T11:04:50.348Z,248
2018-07-04T11:09:50.821Z,248
2018-07-04T11:14:50.742Z,270
2018-07-04T11:19:50.442Z,270
2018-07-04T11:24:50.077Z,248
2018-07-04T11:29:50.738Z,248
2018-07-04T11:34:50.456Z,270
2018-07-04T11:39:50.079Z,270
2018-07-04T11:44:50.684Z,270
2018-07-04T11:49:50.464Z,270
2018-07-04T11:54:50.490Z,225
2018-07-04T11:59:50.172Z,225
2018-07-04T12:04:50.893Z,270
2018-07-04T12:09:50.698Z,270
2018-07-04T12:14:50.491Z,202
2018-07-04T12:19:50.181Z,202
2018-07-04T12:24:51.039Z,270
2018-07-04T12:29:50.710Z,270
2018-07-04T12:34:51.028Z,202
2018-07-04T12:39:50.933Z,202
2018-07-04T12:44:50.699Z,225
2018-07-04T12:49:50.376Z,225
2018-07-04T12:54:50.268Z,292
2018-07-04T12:59:50.963Z,292
2018-07-04T13:04:50.571Z,248
2018-07-04T13:09:50.394Z,248
2018-07-04T13:14:50.632Z,202
2018-07-04T13:19:50.385Z,202
2018-07-04T13:24:50.178Z,158
2018-07-04T13:29:50.659Z,158
2018-07-04T13:34:50.335Z,225
2018-07-04T13:39:51.069Z,225
2018-07-04T13:44:50.108Z,225
2018-07-04T13:49:50.896Z,225
2018-07-04T13:54:50.888Z,248
2018-07-04T13:59:50.674Z,248
2018-07-04T14:04:51.729Z,315
2018-07-04T14:09:51.181Z,315
2018-07-04T14:14:50.992Z,225
2018-07-04T14:19:50.691Z,225
2018-07-04T14:24:50.290Z,270
2018-07-04T14:29:50.914Z,270
2018-07-04T14:34:50.651Z,270
2018-07-04T14:39:50.994Z,270
2018-07-04T14:44:50.698Z,202
2018-07-04T14:49:50.409Z,202
2018-07-04T14:54:51.011Z,270
2018-07-04T14:59:50.701Z,270
2018-07-04T15:04:50.457Z,292
2018-07-04T15:09:50.304Z,292
2018-07-04T15:14:51.090Z,315
2018-07-04T15:19:50.790Z,315
2018-07-04T15:24:50.539Z,315
2018-07-04T15:29:51.240Z,315
2018-07-04T15:34:51.066Z,270
2018-07-04T15:39:50.721Z,270
2018-07-04T15:44:50.313Z,248
2018-07-04T15:49:51.003Z,248
2018-07-04T15:54:50.629Z,315
2018-07-04T15:59:50.553Z,315
2018-07-04T16:04:51.481Z,292
2018-07-04T16:09:51.205Z,292
2018-07-04T16:14:50.580Z,248
2018-07-04T16:19:51.262Z,248
2018-07-04T16:24:50.889Z,315
2018-07-04T16:29:50.504Z,315
2018-07-04T16:34:51.251Z,225
2018-07-04T16:39:50.957Z,225
2018-07-04T16:44:50.709Z,202
2018-07-04T16:49:50.442Z,202
2018-07-04T16:54:51.238Z,270
2018-07-04T16:59:50.873Z,270
2018-07-04T17:04:51.244Z,248
2018-07-04T17:09:51.146Z,248
2018-07-04T17:14:50.691Z,315
2018-07-04T17:19:51.324Z,315
2018-07-04T17:24:50.883Z,315
2018-07-04T17:29:50.593Z,315
2018-07-04T17:34:50.329Z,270
2018-07-04T17:39:51.099Z,270
2018-07-04T17:44:50.788Z,315
2018-07-04T17:49:50.437Z,315
2018-07-04T17:54:51.065Z,315
2018-07-04T17:59:50.815Z,315
2018-07-04T18:04:50.609Z,315
2018-07-04T18:09:51.226Z,315
2018-07-04T18:14:51.118Z,315
2018-07-04T18:19:50.750Z,315
2018-07-04T18:24:50.483Z,315
2018-07-04T18:29:51.117Z,315
2018-07-04T18:34:50.819Z,315
2018-07-04T18:39:50.560Z,315
2018-07-04T18:44:51.235Z,315
2018-07-04T18:49:51.016Z,315
2018-07-04T18:54:50.773Z,315
2018-07-04T18:59:51.362Z,315
2018-07-04T19:04:51.598Z,315
2018-07-04T19:09:51.499Z,315
2018-07-04T19:14:51.248Z,315
2018-07-04T19:19:50.951Z,315
2018-07-04T19:24:50.589Z,315
2018-07-04T19:29:51.336Z,315
2018-07-04T19:34:51.067Z,315
2018-07-04T19:39:50.749Z,315
2018-07-04T19:44:51.458Z,315
2018-07-04T19:49:51.143Z,315
2018-07-04T19:54:51.026Z,315
2018-07-04T19:59:50.703Z,315
2018-07-04T20:04:51.635Z,338
2018-07-04T20:09:51.371Z,338
2018-07-04T20:14:51.259Z,338
2018-07-04T20:19:50.967Z,338
2018-07-04T20:24:50.709Z,315
2018-07-04T20:29:51.361Z,315
2018-07-04T20:34:51.610Z,315
2018-07-04T20:39:51.291Z,315
2018-07-04T20:44:51.102Z,315
2018-07-04T20:49:50.804Z,315
2018-07-04T20:54:51.481Z,315
2018-07-04T20:59:51.201Z,315
2018-07-04T21:04:51.031Z,270
2018-07-04T21:09:50.860Z,270
2018-07-04T21:14:51.231Z,315
2018-07-04T21:19:51.037Z,315
2018-07-04T21:24:50.676Z,315
2018-07-04T21:29:51.322Z,315
2018-07-04T21:34:51.181Z,315
2018-07-04T21:39:51.068Z,315
2018-07-04T21:44:50.687Z,315
2018-07-04T21:49:51.402Z,315
2018-07-04T21:54:51.235Z,315
2018-07-04T21:59:51.145Z,315
2018-07-04T22:04:51.236Z,315
2018-07-04T22:09:51.119Z,315
2018-07-04T22:14:50.798Z,315
2018-07-04T22:19:51.610Z,315
2018-07-04T22:24:51.313Z,315
2018-07-04T22:29:51.112Z,315
2018-07-04T22:34:50.919Z,315
2018-07-04T22:39:51.689Z,315
2018-07-04T22:44:51.326Z,315
2018-07-04T22:49:51.186Z,315
2018-07-04T22:54:50.869Z,315
2018-07-04T22:59:51.553Z,315
2018-07-04T23:04:51.263Z,315
2018-07-04T23:09:51.322Z,315
2018-07-04T23:14:51.157Z,315
2018-07-04T23:19:50.988Z,315
2018-07-04T23:24:51.675Z,0
2018-07-04T23:29:51.396Z,0
2018-07-04T23:34:51.159Z,338
2018-07-04T23:39:51.895Z,338
2018-07-04T23:44:51.583Z,338
2018-07-04T23:49:51.400Z,338
2018-07-04T23:54:50.902Z,315
2018-07-04T23:59:51.688Z,315
